sensor_id;sensor_type;location;lat;lon;timestamp;temperature;humidity
16485;DHT22;8353;47.856;12.344;2023-09-19T00:01:05;19.00;99.90
16485;DHT22;8353;47.856;12.344;2023-09-19T00:03:36;19.00;99.90
16485;DHT22;8353;47.856;12.344;2023-09-19T00:06:07;19.00;99.90
16485;DHT22;8353;47.856;12.344;2023-09-19T00:08:38;18.90;99.90
16485;DHT22;8353;47.856;12.344;2023-09-19T00:11:09;18.90;99.90
16485;DHT22;8353;47.856;12.344;2023-09-19T00:13:40;19.00;99.90
16485;DHT22;8353;47.856;12.344;2023-09-19T00:16:11;19.10;99.90
16485;DHT22;8353;47.856;12.344;2023-09-19T00:18:41;19.20;99.90
16485;DHT22;8353;47.856;12.344;2023-09-19T00:21:11;19.20;99.90
16485;DHT22;8353;47.856;12.344;2023-09-19T00:23:42;19.20;99.90
16485;DHT22;8353;47.856;12.344;2023-09-19T00:26:13;19.10;99.90
16485;DHT22;8353;47.856;12.344;2023-09-19T00:28:44;19.00;99.90
16485;DHT22;8353;47.856;12.344;2023-09-19T00:31:14;19.00;99.90
16485;DHT22;8353;47.856;12.344;2023-09-19T00:33:44;19.00;99.90
16485;DHT22;8353;47.856;12.344;2023-09-19T00:36:14;19.10;99.90
16485;DHT22;8353;47.856;12.344;2023-09-19T00:38:45;19.00;99.90
16485;DHT22;8353;47.856;12.344;2023-09-19T00:41:17;18.90;99.90
16485;DHT22;8353;47.856;12.344;2023-09-19T00:43:47;18.90;99.90
16485;DHT22;8353;47.856;12.344;2023-09-19T00:46:19;19.00;99.90
16485;DHT22;8353;47.856;12.344;2023-09-19T00:48:49;19.10;99.90
16485;DHT22;8353;47.856;12.344;2023-09-19T00:51:21;19.10;99.90
16485;DHT22;8353;47.856;12.344;2023-09-19T00:53:51;19.00;99.90
16485;DHT22;8353;47.856;12.344;2023-09-19T00:56:24;18.90;99.90
16485;DHT22;8353;47.856;12.344;2023-09-19T00:58:54;18.90;99.90
16485;DHT22;8353;47.856;12.344;2023-09-19T01:01:25;19.00;99.90
16485;DHT22;8353;47.856;12.344;2023-09-19T01:03:55;19.00;99.90
16485;DHT22;8353;47.856;12.344;2023-09-19T01:06:25;19.10;99.90
16485;DHT22;8353;47.856;12.344;2023-09-19T01:08:55;19.10;99.90
16485;DHT22;8353;47.856;12.344;2023-09-19T01:11:33;19.10;99.90
16485;DHT22;8353;47.856;12.344;2023-09-19T01:14:29;19.10;99.90
16485;DHT22;8353;47.856;12.344;2023-09-19T01:17:03;19.20;99.90
16485;DHT22;8353;47.856;12.344;2023-09-19T01:20:01;19.30;99.90
16485;DHT22;8353;47.856;12.344;2023-09-19T01:22:42;19.30;99.90
16485;DHT22;8353;47.856;12.344;2023-09-19T01:25:41;19.30;99.90
16485;DHT22;8353;47.856;12.344;2023-09-19T01:28:20;19.20;99.90
16485;DHT22;8353;47.856;12.344;2023-09-19T01:30:56;19.20;99.90
16485;DHT22;8353;47.856;12.344;2023-09-19T01:33:28;19.30;99.90
16485;DHT22;8353;47.856;12.344;2023-09-19T01:36:04;19.30;99.90
16485;DHT22;8353;47.856;12.344;2023-09-19T01:38:35;19.30;99.90
16485;DHT22;8353;47.856;12.344;2023-09-19T01:41:11;19.20;99.90
16485;DHT22;8353;47.856;12.344;2023-09-19T01:43:42;19.00;99.90
16485;DHT22;8353;47.856;12.344;2023-09-19T01:46:17;19.20;99.90
16485;DHT22;8353;47.856;12.344;2023-09-19T01:48:57;19.20;99.90
16485;DHT22;8353;47.856;12.344;2023-09-19T01:51:34;19.20;99.90
16485;DHT22;8353;47.856;12.344;2023-09-19T01:54:27;19.20;99.90
16485;DHT22;8353;47.856;12.344;2023-09-19T01:57:05;19.20;99.90
16485;DHT22;8353;47.856;12.344;2023-09-19T01:59:43;19.20;99.90
16485;DHT22;8353;47.856;12.344;2023-09-19T02:02:17;19.20;99.90
16485;DHT22;8353;47.856;12.344;2023-09-19T02:04:50;19.20;99.90
16485;DHT22;8353;47.856;12.344;2023-09-19T02:07:22;19.10;99.90
16485;DHT22;8353;47.856;12.344;2023-09-19T02:09:53;19.10;99.90
16485;DHT22;8353;47.856;12.344;2023-09-19T02:12:24;19.00;99.90
16485;DHT22;8353;47.856;12.344;2023-09-19T02:14:54;19.10;99.90
16485;DHT22;8353;47.856;12.344;2023-09-19T02:17:27;19.20;99.90
16485;DHT22;8353;47.856;12.344;2023-09-19T02:19:58;19.10;99.90
16485;DHT22;8353;47.856;12.344;2023-09-19T02:22:29;19.00;99.90
16485;DHT22;8353;47.856;12.344;2023-09-19T02:24:59;19.00;99.90
16485;DHT22;8353;47.856;12.344;2023-09-19T02:27:31;19.10;99.90
16485;DHT22;8353;47.856;12.344;2023-09-19T02:30:02;19.20;99.90
16485;DHT22;8353;47.856;12.344;2023-09-19T02:32:35;19.10;99.90
16485;DHT22;8353;47.856;12.344;2023-09-19T02:35:08;19.00;99.90
16485;DHT22;8353;47.856;12.344;2023-09-19T02:37:40;19.00;99.90
16485;DHT22;8353;47.856;12.344;2023-09-19T02:40:11;19.10;99.90
16485;DHT22;8353;47.856;12.344;2023-09-19T02:42:48;19.10;99.90
16485;DHT22;8353;47.856;12.344;2023-09-19T02:45:19;19.10;99.90
16485;DHT22;8353;47.856;12.344;2023-09-19T02:47:53;19.00;99.90
16485;DHT22;8353;47.856;12.344;2023-09-19T02:50:24;18.90;99.90
16485;DHT22;8353;47.856;12.344;2023-09-19T02:52:55;18.80;99.90
16485;DHT22;8353;47.856;12.344;2023-09-19T02:55:26;18.80;99.90
16485;DHT22;8353;47.856;12.344;2023-09-19T02:57:57;18.80;99.90
16485;DHT22;8353;47.856;12.344;2023-09-19T03:00:27;18.80;99.90
16485;DHT22;8353;47.856;12.344;2023-09-19T03:03:00;18.90;99.90
16485;DHT22;8353;47.856;12.344;2023-09-19T03:05:31;18.80;99.90
16485;DHT22;8353;47.856;12.344;2023-09-19T03:08:01;18.80;99.90
16485;DHT22;8353;47.856;12.344;2023-09-19T03:10:32;18.80;99.90
16485;DHT22;8353;47.856;12.344;2023-09-19T03:13:03;18.90;99.90
16485;DHT22;8353;47.856;12.344;2023-09-19T03:15:33;18.90;99.90
16485;DHT22;8353;47.856;12.344;2023-09-19T03:18:05;19.00;99.90
16485;DHT22;8353;47.856;12.344;2023-09-19T03:20:36;19.00;99.90
16485;DHT22;8353;47.856;12.344;2023-09-19T03:23:08;19.00;99.90
16485;DHT22;8353;47.856;12.344;2023-09-19T03:25:39;19.00;99.90
16485;DHT22;8353;47.856;12.344;2023-09-19T03:28:10;19.00;99.90
16485;DHT22;8353;47.856;12.344;2023-09-19T03:30:40;19.10;99.90
16485;DHT22;8353;47.856;12.344;2023-09-19T03:33:13;19.10;99.90
16485;DHT22;8353;47.856;12.344;2023-09-19T03:35:43;19.10;99.90
16485;DHT22;8353;47.856;12.344;2023-09-19T03:38:22;19.20;99.90
16485;DHT22;8353;47.856;12.344;2023-09-19T03:40:53;19.10;99.90
16485;DHT22;8353;47.856;12.344;2023-09-19T03:43:23;19.10;99.90
16485;DHT22;8353;47.856;12.344;2023-09-19T03:45:53;19.10;99.90
16485;DHT22;8353;47.856;12.344;2023-09-19T03:48:25;19.20;99.90
16485;DHT22;8353;47.856;12.344;2023-09-19T03:50:56;19.10;99.90
16485;DHT22;8353;47.856;12.344;2023-09-19T03:53:26;19.10;99.90
16485;DHT22;8353;47.856;12.344;2023-09-19T03:55:56;19.10;99.90
16485;DHT22;8353;47.856;12.344;2023-09-19T03:58:26;19.00;99.90
16485;DHT22;8353;47.856;12.344;2023-09-19T04:00:57;19.00;99.90
16485;DHT22;8353;47.856;12.344;2023-09-19T04:03:29;19.00;99.90
16485;DHT22;8353;47.856;12.344;2023-09-19T04:06:04;19.00;99.90
16485;DHT22;8353;47.856;12.344;2023-09-19T04:08:34;19.00;99.90
16485;DHT22;8353;47.856;12.344;2023-09-19T04:11:05;19.00;99.90
16485;DHT22;8353;47.856;12.344;2023-09-19T04:13:36;19.10;99.90
16485;DHT22;8353;47.856;12.344;2023-09-19T04:16:06;19.10;99.90
16485;DHT22;8353;47.856;12.344;2023-09-19T04:18:38;19.10;99.90
16485;DHT22;8353;47.856;12.344;2023-09-19T04:21:08;19.20;99.90
16485;DHT22;8353;47.856;12.344;2023-09-19T04:23:39;19.20;99.90
16485;DHT22;8353;47.856;12.344;2023-09-19T04:26:09;19.10;99.90
16485;DHT22;8353;47.856;12.344;2023-09-19T04:28:41;19.20;99.90
16485;DHT22;8353;47.856;12.344;2023-09-19T04:31:13;19.20;99.90
16485;DHT22;8353;47.856;12.344;2023-09-19T04:33:45;19.30;99.90
16485;DHT22;8353;47.856;12.344;2023-09-19T04:36:15;19.30;99.90
16485;DHT22;8353;47.856;12.344;2023-09-19T04:38:46;19.30;99.90
16485;DHT22;8353;47.856;12.344;2023-09-19T04:41:16;19.30;99.90
16485;DHT22;8353;47.856;12.344;2023-09-19T04:43:47;19.30;99.90
16485;DHT22;8353;47.856;12.344;2023-09-19T04:46:18;19.40;99.90
16485;DHT22;8353;47.856;12.344;2023-09-19T04:48:50;19.30;99.90
16485;DHT22;8353;47.856;12.344;2023-09-19T04:51:21;19.30;99.90
16485;DHT22;8353;47.856;12.344;2023-09-19T04:53:52;19.30;99.90
16485;DHT22;8353;47.856;12.344;2023-09-19T04:56:22;19.30;99.90
16485;DHT22;8353;47.856;12.344;2023-09-19T04:58:53;19.30;99.90
16485;DHT22;8353;47.856;12.344;2023-09-19T05:01:24;19.30;99.90
16485;DHT22;8353;47.856;12.344;2023-09-19T05:03:56;19.30;99.90
16485;DHT22;8353;47.856;12.344;2023-09-19T05:06:27;19.30;99.90
16485;DHT22;8353;47.856;12.344;2023-09-19T05:08:57;19.20;99.90
16485;DHT22;8353;47.856;12.344;2023-09-19T05:11:29;19.20;99.90
16485;DHT22;8353;47.856;12.344;2023-09-19T05:14:00;19.20;99.90
16485;DHT22;8353;47.856;12.344;2023-09-19T05:16:33;19.20;99.90
16485;DHT22;8353;47.856;12.344;2023-09-19T05:19:04;19.20;99.90
16485;DHT22;8353;47.856;12.344;2023-09-19T05:21:35;19.20;99.90
16485;DHT22;8353;47.856;12.344;2023-09-19T05:24:06;19.20;99.90
16485;DHT22;8353;47.856;12.344;2023-09-19T05:26:37;19.20;99.90
16485;DHT22;8353;47.856;12.344;2023-09-19T05:29:07;19.30;99.90
16485;DHT22;8353;47.856;12.344;2023-09-19T05:31:38;19.30;99.90
16485;DHT22;8353;47.856;12.344;2023-09-19T05:34:11;19.20;99.90
16485;DHT22;8353;47.856;12.344;2023-09-19T05:36:41;19.40;99.90
16485;DHT22;8353;47.856;12.344;2023-09-19T05:39:12;19.30;99.90
16485;DHT22;8353;47.856;12.344;2023-09-19T05:41:43;19.30;99.90
16485;DHT22;8353;47.856;12.344;2023-09-19T05:44:13;19.30;99.90
16485;DHT22;8353;47.856;12.344;2023-09-19T05:46:44;19.40;99.90
16485;DHT22;8353;47.856;12.344;2023-09-19T05:49:16;19.40;99.90
16485;DHT22;8353;47.856;12.344;2023-09-19T05:51:46;19.50;99.90
16485;DHT22;8353;47.856;12.344;2023-09-19T05:54:17;19.50;99.90
16485;DHT22;8353;47.856;12.344;2023-09-19T05:56:47;19.50;99.90
16485;DHT22;8353;47.856;12.344;2023-09-19T05:59:18;19.50;99.90
16485;DHT22;8353;47.856;12.344;2023-09-19T06:01:48;19.50;99.90
16485;DHT22;8353;47.856;12.344;2023-09-19T06:04:20;19.50;99.90
16485;DHT22;8353;47.856;12.344;2023-09-19T06:06:50;19.40;99.90
16485;DHT22;8353;47.856;12.344;2023-09-19T06:09:20;19.50;99.90
16485;DHT22;8353;47.856;12.344;2023-09-19T06:11:52;19.50;99.90
16485;DHT22;8353;47.856;12.344;2023-09-19T06:14:22;19.50;99.90
16485;DHT22;8353;47.856;12.344;2023-09-19T06:16:53;19.60;99.90
16485;DHT22;8353;47.856;12.344;2023-09-19T06:19:25;19.60;99.90
16485;DHT22;8353;47.856;12.344;2023-09-19T06:21:55;19.60;99.90
16485;DHT22;8353;47.856;12.344;2023-09-19T06:24:26;19.60;99.90
16485;DHT22;8353;47.856;12.344;2023-09-19T06:26:57;19.70;99.90
16485;DHT22;8353;47.856;12.344;2023-09-19T06:29:30;19.60;99.90
16485;DHT22;8353;47.856;12.344;2023-09-19T06:32:01;19.70;99.90
16485;DHT22;8353;47.856;12.344;2023-09-19T06:34:33;19.70;99.90
16485;DHT22;8353;47.856;12.344;2023-09-19T06:37:04;19.70;99.90
16485;DHT22;8353;47.856;12.344;2023-09-19T06:39:35;19.70;99.90
16485;DHT22;8353;47.856;12.344;2023-09-19T06:42:06;19.70;99.90
16485;DHT22;8353;47.856;12.344;2023-09-19T06:44:38;19.70;99.90
16485;DHT22;8353;47.856;12.344;2023-09-19T06:47:08;19.70;99.90
16485;DHT22;8353;47.856;12.344;2023-09-19T06:49:41;19.70;99.90
16485;DHT22;8353;47.856;12.344;2023-09-19T06:52:13;19.70;99.90
16485;DHT22;8353;47.856;12.344;2023-09-19T06:54:43;19.70;99.90
16485;DHT22;8353;47.856;12.344;2023-09-19T06:57:14;19.70;99.90
16485;DHT22;8353;47.856;12.344;2023-09-19T06:59:45;19.70;99.90
16485;DHT22;8353;47.856;12.344;2023-09-19T07:02:15;19.70;99.90
16485;DHT22;8353;47.856;12.344;2023-09-19T07:04:48;19.70;99.90
16485;DHT22;8353;47.856;12.344;2023-09-19T07:07:18;19.80;99.90
16485;DHT22;8353;47.856;12.344;2023-09-19T07:09:49;19.80;99.90
16485;DHT22;8353;47.856;12.344;2023-09-19T07:12:20;19.80;99.90
16485;DHT22;8353;47.856;12.344;2023-09-19T07:14:50;19.90;99.90
16485;DHT22;8353;47.856;12.344;2023-09-19T07:17:20;19.90;99.90
16485;DHT22;8353;47.856;12.344;2023-09-19T07:19:54;19.90;99.90
16485;DHT22;8353;47.856;12.344;2023-09-19T07:22:26;20.00;99.90
16485;DHT22;8353;47.856;12.344;2023-09-19T07:24:56;20.00;99.90
16485;DHT22;8353;47.856;12.344;2023-09-19T07:27:26;20.10;99.90
16485;DHT22;8353;47.856;12.344;2023-09-19T07:29:57;20.10;99.90
16485;DHT22;8353;47.856;12.344;2023-09-19T07:32:28;20.20;99.90
16485;DHT22;8353;47.856;12.344;2023-09-19T07:35:00;20.20;99.90
16485;DHT22;8353;47.856;12.344;2023-09-19T07:37:31;20.20;99.90
16485;DHT22;8353;47.856;12.344;2023-09-19T07:40:03;20.30;99.90
16485;DHT22;8353;47.856;12.344;2023-09-19T07:42:37;20.30;99.90
16485;DHT22;8353;47.856;12.344;2023-09-19T07:45:10;20.40;99.90
16485;DHT22;8353;47.856;12.344;2023-09-19T07:47:44;20.40;99.90
16485;DHT22;8353;47.856;12.344;2023-09-19T07:50:18;20.40;99.90
16485;DHT22;8353;47.856;12.344;2023-09-19T07:52:50;20.60;99.90
16485;DHT22;8353;47.856;12.344;2023-09-19T07:55:22;20.50;99.90
16485;DHT22;8353;47.856;12.344;2023-09-19T07:57:54;20.70;99.90
16485;DHT22;8353;47.856;12.344;2023-09-19T08:00:24;21.00;99.90
16485;DHT22;8353;47.856;12.344;2023-09-19T08:02:55;21.20;99.90
16485;DHT22;8353;47.856;12.344;2023-09-19T08:05:27;21.30;99.90
16485;DHT22;8353;47.856;12.344;2023-09-19T08:07:57;21.40;99.90
16485;DHT22;8353;47.856;12.344;2023-09-19T08:10:28;21.50;99.90
16485;DHT22;8353;47.856;12.344;2023-09-19T08:13:03;21.70;99.90
16485;DHT22;8353;47.856;12.344;2023-09-19T08:15:35;21.60;99.90
16485;DHT22;8353;47.856;12.344;2023-09-19T08:18:05;21.60;99.90
16485;DHT22;8353;47.856;12.344;2023-09-19T08:20:38;21.60;99.90
16485;DHT22;8353;47.856;12.344;2023-09-19T08:23:11;21.80;99.90
16485;DHT22;8353;47.856;12.344;2023-09-19T08:25:41;21.80;99.90
16485;DHT22;8353;47.856;12.344;2023-09-19T08:28:12;21.90;99.90
16485;DHT22;8353;47.856;12.344;2023-09-19T08:30:47;21.70;99.90
16485;DHT22;8353;47.856;12.344;2023-09-19T08:33:17;21.80;99.90
16485;DHT22;8353;47.856;12.344;2023-09-19T08:35:50;21.90;99.90
16485;DHT22;8353;47.856;12.344;2023-09-19T08:38:20;22.00;99.90
16485;DHT22;8353;47.856;12.344;2023-09-19T08:40:51;22.10;99.90
16485;DHT22;8353;47.856;12.344;2023-09-19T08:43:21;22.10;99.90
16485;DHT22;8353;47.856;12.344;2023-09-19T08:45:58;22.20;99.90
16485;DHT22;8353;47.856;12.344;2023-09-19T08:48:34;22.30;99.90
16485;DHT22;8353;47.856;12.344;2023-09-19T08:51:18;22.20;99.90
16485;DHT22;8353;47.856;12.344;2023-09-19T08:53:51;22.20;99.90
16485;DHT22;8353;47.856;12.344;2023-09-19T08:56:22;22.20;99.90
16485;DHT22;8353;47.856;12.344;2023-09-19T08:59:01;22.10;99.90
16485;DHT22;8353;47.856;12.344;2023-09-19T09:01:33;22.00;99.90
16485;DHT22;8353;47.856;12.344;2023-09-19T09:04:07;22.00;99.90
16485;DHT22;8353;47.856;12.344;2023-09-19T09:06:43;21.90;99.90
16485;DHT22;8353;47.856;12.344;2023-09-19T09:09:14;22.10;99.90
16485;DHT22;8353;47.856;12.344;2023-09-19T09:11:45;22.10;99.90
16485;DHT22;8353;47.856;12.344;2023-09-19T09:14:20;22.10;99.90
16485;DHT22;8353;47.856;12.344;2023-09-19T09:16:50;22.20;99.90
16485;DHT22;8353;47.856;12.344;2023-09-19T09:19:25;22.60;99.90
16485;DHT22;8353;47.856;12.344;2023-09-19T09:22:07;22.70;99.90
16485;DHT22;8353;47.856;12.344;2023-09-19T09:24:51;22.90;99.90
16485;DHT22;8353;47.856;12.344;2023-09-19T09:27:22;23.00;99.90
16485;DHT22;8353;47.856;12.344;2023-09-19T09:29:54;23.00;99.90
16485;DHT22;8353;47.856;12.344;2023-09-19T09:32:26;23.10;99.90
16485;DHT22;8353;47.856;12.344;2023-09-19T09:34:59;23.10;99.90
16485;DHT22;8353;47.856;12.344;2023-09-19T09:37:31;22.90;99.90
16485;DHT22;8353;47.856;12.344;2023-09-19T09:40:04;23.00;99.90
16485;DHT22;8353;47.856;12.344;2023-09-19T09:42:48;23.10;99.90
16485;DHT22;8353;47.856;12.344;2023-09-19T09:45:23;23.10;99.90
16485;DHT22;8353;47.856;12.344;2023-09-19T09:48:07;23.10;99.90
16485;DHT22;8353;47.856;12.344;2023-09-19T09:50:47;23.10;99.90
16485;DHT22;8353;47.856;12.344;2023-09-19T09:53:27;23.10;99.90
16485;DHT22;8353;47.856;12.344;2023-09-19T09:56:02;23.20;99.90
16485;DHT22;8353;47.856;12.344;2023-09-19T09:58:36;23.20;99.90
16485;DHT22;8353;47.856;12.344;2023-09-19T10:01:07;23.20;99.90
16485;DHT22;8353;47.856;12.344;2023-09-19T10:03:44;23.40;99.90
16485;DHT22;8353;47.856;12.344;2023-09-19T10:06:17;23.50;99.90
16485;DHT22;8353;47.856;12.344;2023-09-19T10:09:02;23.60;99.90
16485;DHT22;8353;47.856;12.344;2023-09-19T10:11:41;23.50;99.90
16485;DHT22;8353;47.856;12.344;2023-09-19T10:14:15;23.40;99.90
16485;DHT22;8353;47.856;12.344;2023-09-19T10:16:48;23.30;99.90
16485;DHT22;8353;47.856;12.344;2023-09-19T10:19:23;23.30;99.90
16485;DHT22;8353;47.856;12.344;2023-09-19T10:21:55;23.10;99.90
16485;DHT22;8353;47.856;12.344;2023-09-19T10:24:28;23.00;99.90
16485;DHT22;8353;47.856;12.344;2023-09-19T10:27:01;22.80;99.90
16485;DHT22;8353;47.856;12.344;2023-09-19T10:29:34;22.90;99.90
16485;DHT22;8353;47.856;12.344;2023-09-19T10:32:06;22.90;99.90
16485;DHT22;8353;47.856;12.344;2023-09-19T10:34:38;23.00;99.90
16485;DHT22;8353;47.856;12.344;2023-09-19T10:37:13;23.00;99.90
16485;DHT22;8353;47.856;12.344;2023-09-19T10:39:48;23.10;99.90
16485;DHT22;8353;47.856;12.344;2023-09-19T10:42:20;23.30;99.90
16485;DHT22;8353;47.856;12.344;2023-09-19T10:44:55;23.50;99.90
16485;DHT22;8353;47.856;12.344;2023-09-19T10:47:29;23.70;99.90
16485;DHT22;8353;47.856;12.344;2023-09-19T10:49:59;23.80;99.90
16485;DHT22;8353;47.856;12.344;2023-09-19T10:52:39;23.90;99.90
16485;DHT22;8353;47.856;12.344;2023-09-19T10:55:16;23.90;99.90
16485;DHT22;8353;47.856;12.344;2023-09-19T10:57:48;23.90;99.90
16485;DHT22;8353;47.856;12.344;2023-09-19T11:00:18;24.20;99.90
16485;DHT22;8353;47.856;12.344;2023-09-19T11:03:18;24.40;99.90
16485;DHT22;8353;47.856;12.344;2023-09-19T11:06:01;24.60;99.90
16485;DHT22;8353;47.856;12.344;2023-09-19T11:09:00;24.70;99.90
16485;DHT22;8353;47.856;12.344;2023-09-19T11:11:47;24.80;99.90
16485;DHT22;8353;47.856;12.344;2023-09-19T11:14:38;25.00;99.90
16485;DHT22;8353;47.856;12.344;2023-09-19T11:17:32;25.10;99.90
16485;DHT22;8353;47.856;12.344;2023-09-19T11:20:21;25.10;99.90
16485;DHT22;8353;47.856;12.344;2023-09-19T11:23:18;25.10;99.90
16485;DHT22;8353;47.856;12.344;2023-09-19T11:25:52;25.20;99.90
16485;DHT22;8353;47.856;12.344;2023-09-19T11:28:32;25.00;99.90
16485;DHT22;8353;47.856;12.344;2023-09-19T11:34:38;25.00;99.90
16485;DHT22;8353;47.856;12.344;2023-09-19T11:40:16;25.20;99.90
16485;DHT22;8353;47.856;12.344;2023-09-19T11:42:48;25.50;99.90
16485;DHT22;8353;47.856;12.344;2023-09-19T11:46:09;25.70;99.90
16485;DHT22;8353;47.856;12.344;2023-09-19T11:48:41;26.00;99.90
16485;DHT22;8353;47.856;12.344;2023-09-19T11:51:15;26.00;99.90
16485;DHT22;8353;47.856;12.344;2023-09-19T11:53:52;25.80;99.90
16485;DHT22;8353;47.856;12.344;2023-09-19T11:56:24;25.60;99.90
16485;DHT22;8353;47.856;12.344;2023-09-19T11:58:57;25.40;99.90
16485;DHT22;8353;47.856;12.344;2023-09-19T12:01:32;25.20;99.90
16485;DHT22;8353;47.856;12.344;2023-09-19T12:04:04;25.00;99.90
16485;DHT22;8353;47.856;12.344;2023-09-19T12:06:34;25.10;99.90
16485;DHT22;8353;47.856;12.344;2023-09-19T12:09:12;25.10;99.90
16485;DHT22;8353;47.856;12.344;2023-09-19T12:11:46;24.90;99.90
16485;DHT22;8353;47.856;12.344;2023-09-19T12:14:22;25.00;99.90
16485;DHT22;8353;47.856;12.344;2023-09-19T12:16:56;25.00;99.90
16485;DHT22;8353;47.856;12.344;2023-09-19T12:19:29;25.00;99.90
16485;DHT22;8353;47.856;12.344;2023-09-19T12:22:01;24.80;99.90
16485;DHT22;8353;47.856;12.344;2023-09-19T12:24:34;24.70;99.90
16485;DHT22;8353;47.856;12.344;2023-09-19T12:27:07;24.70;99.90
16485;DHT22;8353;47.856;12.344;2023-09-19T12:29:45;24.90;99.90
16485;DHT22;8353;47.856;12.344;2023-09-19T12:32:34;25.20;99.90
16485;DHT22;8353;47.856;12.344;2023-09-19T12:35:05;25.60;99.90
16485;DHT22;8353;47.856;12.344;2023-09-19T12:37:43;25.60;99.90
16485;DHT22;8353;47.856;12.344;2023-09-19T12:40:15;25.60;99.90
16485;DHT22;8353;47.856;12.344;2023-09-19T12:42:48;25.60;99.90
16485;DHT22;8353;47.856;12.344;2023-09-19T12:45:20;25.70;99.90
16485;DHT22;8353;47.856;12.344;2023-09-19T12:48:21;25.70;99.90
16485;DHT22;8353;47.856;12.344;2023-09-19T12:51:02;25.60;99.90
16485;DHT22;8353;47.856;12.344;2023-09-19T12:53:35;25.70;99.90
16485;DHT22;8353;47.856;12.344;2023-09-19T12:56:10;26.00;99.90
16485;DHT22;8353;47.856;12.344;2023-09-19T12:58:51;26.20;99.90
16485;DHT22;8353;47.856;12.344;2023-09-19T13:01:23;26.20;99.90
16485;DHT22;8353;47.856;12.344;2023-09-19T13:04:14;26.20;99.90
16485;DHT22;8353;47.856;12.344;2023-09-19T13:06:48;26.30;99.90
16485;DHT22;8353;47.856;12.344;2023-09-19T13:09:20;26.40;99.90
16485;DHT22;8353;47.856;12.344;2023-09-19T13:11:51;26.30;99.90
16485;DHT22;8353;47.856;12.344;2023-09-19T13:14:24;26.10;99.90
16485;DHT22;8353;47.856;12.344;2023-09-19T13:16:58;25.90;99.90
16485;DHT22;8353;47.856;12.344;2023-09-19T13:19:39;26.10;99.90
16485;DHT22;8353;47.856;12.344;2023-09-19T13:22:38;26.20;99.90
16485;DHT22;8353;47.856;12.344;2023-09-19T13:25:12;26.00;99.90
16485;DHT22;8353;47.856;12.344;2023-09-19T13:27:45;25.70;99.90
16485;DHT22;8353;47.856;12.344;2023-09-19T13:30:17;25.70;99.90
16485;DHT22;8353;47.856;12.344;2023-09-19T13:32:48;25.50;99.90
16485;DHT22;8353;47.856;12.344;2023-09-19T13:35:20;25.40;99.90
16485;DHT22;8353;47.856;12.344;2023-09-19T13:37:51;25.50;99.90
16485;DHT22;8353;47.856;12.344;2023-09-19T13:40:21;25.70;99.90
16485;DHT22;8353;47.856;12.344;2023-09-19T13:42:52;25.90;99.90
16485;DHT22;8353;47.856;12.344;2023-09-19T13:45:22;26.10;99.90
16485;DHT22;8353;47.856;12.344;2023-09-19T13:47:53;26.20;99.90
16485;DHT22;8353;47.856;12.344;2023-09-19T13:50:26;26.20;99.90
16485;DHT22;8353;47.856;12.344;2023-09-19T13:52:58;26.10;99.90
16485;DHT22;8353;47.856;12.344;2023-09-19T13:55:29;26.10;99.90
16485;DHT22;8353;47.856;12.344;2023-09-19T13:57:59;25.80;99.90
16485;DHT22;8353;47.856;12.344;2023-09-19T14:00:29;25.90;99.90
16485;DHT22;8353;47.856;12.344;2023-09-19T14:03:01;25.70;99.90
16485;DHT22;8353;47.856;12.344;2023-09-19T14:05:35;25.70;99.90
16485;DHT22;8353;47.856;12.344;2023-09-19T14:08:05;25.80;99.90
16485;DHT22;8353;47.856;12.344;2023-09-19T14:10:36;26.00;99.90
16485;DHT22;8353;47.856;12.344;2023-09-19T14:13:07;26.30;99.90
16485;DHT22;8353;47.856;12.344;2023-09-19T14:15:37;26.40;99.90
16485;DHT22;8353;47.856;12.344;2023-09-19T14:18:08;26.30;99.90
16485;DHT22;8353;47.856;12.344;2023-09-19T14:20:40;26.30;99.90
16485;DHT22;8353;47.856;12.344;2023-09-19T14:23:10;26.40;99.90
16485;DHT22;8353;47.856;12.344;2023-09-19T14:25:41;26.60;99.90
16485;DHT22;8353;47.856;12.344;2023-09-19T14:28:11;26.70;99.90
16485;DHT22;8353;47.856;12.344;2023-09-19T14:30:42;26.70;99.90
16485;DHT22;8353;47.856;12.344;2023-09-19T14:33:13;26.70;99.90
16485;DHT22;8353;47.856;12.344;2023-09-19T14:35:46;26.60;99.90
16485;DHT22;8353;47.856;12.344;2023-09-19T14:38:17;26.60;99.90
16485;DHT22;8353;47.856;12.344;2023-09-19T14:40:47;26.40;99.90
16485;DHT22;8353;47.856;12.344;2023-09-19T14:43:19;26.40;99.90
16485;DHT22;8353;47.856;12.344;2023-09-19T14:45:49;26.60;99.90
16485;DHT22;8353;47.856;12.344;2023-09-19T14:48:20;26.70;99.90
16485;DHT22;8353;47.856;12.344;2023-09-19T14:50:55;26.40;99.90
16485;DHT22;8353;47.856;12.344;2023-09-19T14:53:31;26.00;99.90
16485;DHT22;8353;47.856;12.344;2023-09-19T14:56:01;26.20;99.90
16485;DHT22;8353;47.856;12.344;2023-09-19T14:58:33;25.90;99.90
16485;DHT22;8353;47.856;12.344;2023-09-19T15:01:06;25.60;99.90
16485;DHT22;8353;47.856;12.344;2023-09-19T15:03:37;25.30;99.90
16485;DHT22;8353;47.856;12.344;2023-09-19T15:06:12;25.30;99.90
16485;DHT22;8353;47.856;12.344;2023-09-19T15:08:44;25.10;99.90
16485;DHT22;8353;47.856;12.344;2023-09-19T15:11:16;24.90;99.90
16485;DHT22;8353;47.856;12.344;2023-09-19T15:13:48;24.90;99.90
16485;DHT22;8353;47.856;12.344;2023-09-19T15:16:21;24.90;99.90
16485;DHT22;8353;47.856;12.344;2023-09-19T15:18:51;24.80;99.90
16485;DHT22;8353;47.856;12.344;2023-09-19T15:21:23;24.90;99.90
16485;DHT22;8353;47.856;12.344;2023-09-19T15:23:54;24.90;99.90
16485;DHT22;8353;47.856;12.344;2023-09-19T15:26:24;25.30;99.90
16485;DHT22;8353;47.856;12.344;2023-09-19T15:28:55;25.60;99.90
16485;DHT22;8353;47.856;12.344;2023-09-19T15:31:25;25.80;99.90
16485;DHT22;8353;47.856;12.344;2023-09-19T15:33:56;25.80;99.90
16485;DHT22;8353;47.856;12.344;2023-09-19T15:36:28;25.90;99.90
16485;DHT22;8353;47.856;12.344;2023-09-19T15:38:59;26.00;99.90
16485;DHT22;8353;47.856;12.344;2023-09-19T15:41:31;25.80;99.90
16485;DHT22;8353;47.856;12.344;2023-09-19T15:44:03;25.80;99.90
16485;DHT22;8353;47.856;12.344;2023-09-19T15:46:34;25.90;99.90
16485;DHT22;8353;47.856;12.344;2023-09-19T15:49:05;25.90;99.90
16485;DHT22;8353;47.856;12.344;2023-09-19T15:51:38;25.90;99.90
16485;DHT22;8353;47.856;12.344;2023-09-19T15:54:10;26.10;99.90
16485;DHT22;8353;47.856;12.344;2023-09-19T15:56:43;26.10;99.90
16485;DHT22;8353;47.856;12.344;2023-09-19T15:59:14;26.20;99.90
16485;DHT22;8353;47.856;12.344;2023-09-19T16:01:45;26.00;99.90
16485;DHT22;8353;47.856;12.344;2023-09-19T16:04:15;26.00;99.90
16485;DHT22;8353;47.856;12.344;2023-09-19T16:06:47;26.00;99.90
16485;DHT22;8353;47.856;12.344;2023-09-19T16:09:18;26.00;99.90
16485;DHT22;8353;47.856;12.344;2023-09-19T16:11:48;25.90;99.90
16485;DHT22;8353;47.856;12.344;2023-09-19T16:14:19;26.00;99.90